Time;durP1;ratioP1;P1;durP2;ratioP2;P2;SDS_P1;SDS_P2;PMS_P1;PMS_P2;Temp;Humidity;BMP_temperature;BMP_pressure;BME280_temperature;BME280_humidity;BME280_pressure;Samples;Min_cycle;Max_cycle;Signal;HPM_P1;HPM_P2
2022/09/25 00:01:11;;;;;;;;;12.67;8.67;;;;;17.37;56.62;100909.50;5046959;28;45390;-66
2022/09/25 00:03:36;;;;;;;;;16.00;14.33;;;;;17.57;56.76;100940.16;5047534;28;45623;-68
2022/09/25 00:06:09;;;;;;;;;11.67;11.00;;;;;17.20;56.44;100879.78;5039340;28;45541;-64
2022/09/25 00:08:35;;;;;;;;;4.67;4.67;;;;;17.58;56.35;100951.84;5039428;28;46663;-66
2022/09/25 00:11:09;;;;;;;;;6.67;3.33;;;;;17.55;56.46;100950.03;5038804;28;45708;-65
2022/09/25 00:13:36;;;;;;;;;8.00;4.67;;;;;17.46;56.59;100941.94;5045641;28;45995;-64
2022/09/25 00:16:02;;;;;;;;;8.33;7.00;;;;;17.53;56.83;100951.84;5047114;28;45704;-65
2022/09/25 00:21:13;;;;;;;;;4.00;4.00;;;;;17.48;56.67;100967.16;5047045;28;45470;-65
2022/09/25 00:23:42;;;;;;;;;8.00;5.00;;;;;17.42;57.01;100964.44;5046460;28;46374;-70
2022/09/25 00:26:08;;;;;;;;;3.67;3.67;;;;;17.37;57.08;100952.72;5046808;28;45554;-66
2022/09/25 00:28:35;;;;;;;;;14.33;8.67;;;;;17.40;56.50;100960.84;5037383;28;45801;-67
2022/09/25 00:31:02;;;;;;;;;4.67;3.33;;;;;17.42;56.95;100959.94;5039376;28;45801;-65
2022/09/25 00:33:27;;;;;;;;;3.33;3.00;;;;;17.39;57.05;100962.66;5039560;28;47227;-68
2022/09/25 00:35:53;;;;;;;;;4.00;4.00;;;;;17.45;56.85;100964.44;5044877;28;45516;-68
2022/09/25 00:38:18;;;;;;;;;6.00;4.33;;;;;17.34;57.12;100944.59;5046618;28;53175;-65
2022/09/25 00:40:43;;;;;;;;;3.33;3.33;;;;;17.37;56.43;100941.91;5045139;28;45791;-65
2022/09/25 00:43:37;;;;;;;;;7.67;4.33;;;;;17.47;56.70;100966.25;5046121;28;46305;-66
2022/09/25 00:46:08;;;;;;;;;4.00;3.67;;;;;17.39;56.51;100946.44;5046616;28;45403;-68
2022/09/25 00:48:35;;;;;;;;;6.67;6.00;;;;;17.37;56.32;100941.91;5045912;28;45433;-68
2022/09/25 00:51:01;;;;;;;;;3.00;3.00;;;;;17.47;56.30;100960.84;5039932;28;45550;-67
2022/09/25 00:53:33;;;;;;;;;4.00;4.00;;;;;17.32;56.44;100941.91;5038591;28;46008;-65
2022/09/25 00:56:01;;;;;;;;;4.67;4.67;;;;;17.42;56.54;100954.56;5038619;28;45623;-67
2022/09/25 00:58:29;;;;;;;;;7.33;5.00;;;;;17.29;56.91;100933.78;5044980;28;45927;-65
2022/09/25 01:00:55;;;;;;;;;6.00;4.00;;;;;17.27;56.86;100935.59;5045905;28;45642;-66
2022/09/25 01:03:21;;;;;;;;;11.33;8.00;;;;;17.42;56.90;100950.94;5045548;28;46183;-63
2022/09/25 01:05:48;;;;;;;;;6.67;6.00;;;;;17.41;56.51;100951.84;5046843;28;46144;-66
2022/09/25 01:08:18;;;;;;;;;8.33;6.67;;;;;17.41;56.89;100959.94;5046241;28;45487;-66
2022/09/25 01:10:44;;;;;;;;;9.67;7.67;;;;;17.38;56.53;100955.44;5046044;28;46016;-65
2022/09/25 01:13:10;;;;;;;;;7.33;5.33;;;;;17.38;56.47;100959.94;5040904;28;45584;-64
2022/09/25 01:15:57;;;;;;;;;4.67;3.67;;;;;17.35;56.87;100960.81;5038376;28;45591;-66
2022/09/25 01:18:36;;;;;;;;;7.67;5.00;;;;;16.89;56.99;100887.81;5039152;28;45936;-64
2022/09/25 01:21:20;;;;;;;;;3.67;3.00;;;;;17.24;57.08;100960.81;5044528;28;45671;-67
2022/09/25 01:24:23;;;;;;;;;4.33;4.33;;;;;17.24;56.75;100962.59;5045993;28;45530;-66
2022/09/25 01:27:07;;;;;;;;;4.00;4.00;;;;;17.28;56.93;100957.22;5061400;28;45692;-68
2022/09/25 01:29:43;;;;;;;;;5.33;4.33;;;;;17.26;57.05;100955.41;5046060;28;45583;-66
2022/09/25 01:32:43;;;;;;;;;8.33;6.33;;;;;17.23;56.86;100961.69;5045537;28;45508;-66
2022/09/25 01:35:26;;;;;;;;;6.00;4.00;;;;;17.13;57.22;100939.19;5021913;28;46700;-65
2022/09/25 01:38:24;;;;;;;;;4.67;3.00;;;;;17.25;56.88;100949.09;5037504;28;45784;-63
2022/09/25 01:41:07;;;;;;;;;5.00;5.00;;;;;17.24;57.36;100958.13;5038159;28;46153;-68
2022/09/25 01:44:01;;;;;;;;;2.00;2.00;;;;;17.22;57.11;100953.59;5043410;28;45553;-64
2022/09/25 01:46:29;;;;;;;;;7.00;4.33;;;;;17.19;57.20;100950.88;5046060;28;46101;-65
2022/09/25 01:49:05;;;;;;;;;4.33;4.00;;;;;16.98;57.50;100917.56;5044504;28;45709;-67
2022/09/25 01:51:37;;;;;;;;;5.00;3.67;;;;;17.16;56.91;100949.09;5046628;28;45467;-65
2022/09/25 01:54:09;;;;;;;;;7.33;4.00;;;;;17.02;57.20;100921.16;5047004;28;45664;-67
2022/09/25 01:56:45;;;;;;;;;7.00;5.33;;;;;17.23;57.21;100948.19;5045774;28;45642;-68
2022/09/25 01:59:21;;;;;;;;;5.00;4.67;;;;;17.04;57.16;100922.97;5037679;28;45652;-67
2022/09/25 02:01:48;;;;;;;;;5.67;5.67;;;;;17.07;56.79;100922.94;5037985;28;45948;-67
2022/09/25 02:04:20;;;;;;;;;6.00;4.00;;;;;17.24;57.51;100957.19;5039176;28;45752;-68
2022/09/25 02:06:48;;;;;;;;;6.00;5.00;;;;;17.15;57.25;100944.59;5044638;28;47037;-65
2022/09/25 02:09:28;;;;;;;;;8.00;5.00;;;;;17.17;57.25;100952.69;5043515;28;45620;-65
2022/09/25 02:11:58;;;;;;;;;4.67;4.67;;;;;17.21;57.18;100966.19;5045731;28;45939;-65
2022/09/25 02:14:34;;;;;;;;;5.00;4.00;;;;;16.97;57.88;100920.25;5046121;28;45468;-65
2022/09/25 02:17:05;;;;;;;;;5.00;4.00;;;;;17.22;57.75;100959.00;5045198;28;45436;-64
2022/09/25 02:22:19;;;;;;;;;9.67;5.67;;;;;16.81;58.05;100886.88;5037193;28;45873;-66
2022/09/25 02:25:05;;;;;;;;;9.00;4.33;;;;;17.16;57.74;100954.50;5038224;28;45505;-65
2022/09/25 02:27:32;;;;;;;;;4.67;4.67;;;;;17.15;58.11;100957.19;5023934;28;48596;-64
2022/09/25 02:29:58;;;;;;;;;6.67;4.00;;;;;17.13;58.11;100957.19;5045532;28;45986;-65
2022/09/25 02:32:29;;;;;;;;;6.33;5.00;;;;;17.13;57.64;100962.59;5044794;28;45482;-68
2022/09/25 02:34:56;;;;;;;;;9.00;8.33;;;;;17.13;58.21;100968.88;5047532;28;45598;-67
2022/09/25 02:37:22;;;;;;;;;4.00;4.00;;;;;17.04;57.83;100951.75;5048814;28;45630;-66
2022/09/25 02:39:52;;;;;;;;;5.67;3.67;;;;;16.88;58.08;100931.91;5048131;28;45998;-63
2022/09/25 02:42:54;;;;;;;;;9.00;6.67;;;;;17.01;58.03;100955.34;5048419;28;45569;-66
2022/09/25 02:45:31;;;;;;;;;4.33;4.33;;;;;16.97;58.49;100961.63;5039207;28;45565;-65
2022/09/25 02:48:11;;;;;;;;;5.00;4.00;;;;;16.93;58.51;100957.13;5040700;28;45742;-69
2022/09/25 02:51:03;;;;;;;;;6.33;4.33;;;;;16.85;58.97;100965.19;5044065;28;45855;-65
2022/09/25 02:53:40;;;;;;;;;5.67;4.00;;;;;16.83;59.23;100971.41;5048719;28;46011;-65
2022/09/25 02:56:29;;;;;;;;;6.33;4.67;;;;;16.79;59.52;100977.72;5035567;28;45644;-66
2022/09/25 02:58:58;;;;;;;;;6.33;6.33;;;;;16.74;58.98;100977.69;5047169;28;45499;-66
2022/09/25 03:01:27;;;;;;;;;6.00;6.00;;;;;16.71;59.14;100973.19;5048337;28;45539;-66
2022/09/25 03:03:56;;;;;;;;;6.00;5.00;;;;;16.52;59.24;100950.59;5048505;28;45593;-67
2022/09/25 03:06:24;;;;;;;;;5.00;4.00;;;;;16.58;59.68;100960.50;5043252;28;45728;-65
2022/09/25 03:08:55;;;;;;;;;7.33;7.33;;;;;16.65;59.69;100972.25;5037246;28;47328;-65
2022/09/25 03:11:23;;;;;;;;;6.33;5.00;;;;;16.71;59.86;100983.06;5040874;28;45757;-69
2022/09/25 03:14:02;;;;;;;;;8.00;3.33;;;;;16.33;59.88;100917.25;5046264;28;45873;-68
2022/09/25 03:16:38;;;;;;;;;4.67;3.00;;;;;16.69;59.45;100984.84;5048808;28;45500;-65
2022/09/25 03:19:03;;;;;;;;;9.67;5.00;;;;;16.70;59.43;100979.47;5047444;28;45548;-66
2022/09/25 03:21:29;;;;;;;;;3.67;3.67;;;;;16.71;59.60;100983.06;5048474;28;45684;-69
2022/09/25 03:23:55;;;;;;;;;15.00;8.33;;;;;16.67;59.88;100987.53;5047978;28;45402;-66
2022/09/25 03:26:22;;;;;;;;;8.33;5.33;;;;;16.56;60.16;100968.63;5047468;28;45389;-67
2022/09/25 03:28:47;;;;;;;;;6.33;6.33;;;;;16.31;60.14;100937.91;5042753;28;46412;-68
2022/09/25 03:31:13;;;;;;;;;6.33;5.00;;;;;16.61;59.79;101001.00;5039068;28;45563;-68
2022/09/25 03:33:40;;;;;;;;;9.67;7.33;;;;;16.52;60.04;100982.06;5039893;28;46067;-66
2022/09/25 03:36:10;;;;;;;;;8.67;8.00;;;;;16.64;59.97;100998.31;5045287;28;46155;-65
2022/09/25 03:38:37;;;;;;;;;6.33;6.00;;;;;16.66;60.24;101001.91;5048072;28;46395;-66
2022/09/25 03:41:07;;;;;;;;;12.33;10.33;;;;;16.63;60.16;100995.59;5047931;28;45808;-69
2022/09/25 03:43:35;;;;;;;;;9.33;7.33;;;;;16.54;60.00;100972.19;5046342;28;45582;-65
2022/09/25 03:46:01;;;;;;;;;9.33;6.67;;;;;16.68;59.69;101000.16;5048248;28;45987;-67
2022/09/25 03:48:27;;;;;;;;;7.33;5.00;;;;;16.63;59.43;100992.91;5047439;28;45517;-64
2022/09/25 03:50:52;;;;;;;;;9.33;7.67;;;;;16.51;59.45;100977.56;5044026;28;51253;-67
2022/09/25 03:53:17;;;;;;;;;9.67;6.33;;;;;16.64;59.90;101003.72;5040118;28;45703;-65
2022/09/25 03:55:47;;;;;;;;;5.67;5.33;;;;;16.59;59.47;100995.59;5039072;28;47598;-67
2022/09/25 03:58:13;;;;;;;;;13.33;8.67;;;;;16.66;59.57;101004.63;5042598;28;46209;-65
2022/09/25 04:00:39;;;;;;;;;6.67;6.67;;;;;16.49;59.45;100974.84;5047615;28;45423;-67
2022/09/25 04:03:04;;;;;;;;;8.33;6.00;;;;;16.65;59.97;101004.63;5046584;28;45507;-67
2022/09/25 04:05:30;;;;;;;;;10.00;7.33;;;;;16.67;59.68;101006.44;5047747;28;45821;-67
2022/09/25 04:07:55;;;;;;;;;11.00;9.67;;;;;16.65;60.28;101008.22;5047383;28;47025;-65
2022/09/25 04:10:20;;;;;;;;;7.33;5.00;;;;;16.63;59.75;101007.31;5046839;28;60849;-66
2022/09/25 04:12:46;;;;;;;;;6.67;5.00;;;;;16.64;59.42;101003.72;5046237;28;45498;-67
2022/09/25 04:15:11;;;;;;;;;4.33;4.00;;;;;16.66;59.31;101011.81;5038799;28;45871;-69
2022/09/25 04:17:37;;;;;;;;;7.00;6.33;;;;;16.63;59.33;101003.69;5039442;28;45666;-68
2022/09/25 04:20:02;;;;;;;;;3.67;3.00;;;;;16.68;59.16;101010.94;5039910;28;55315;-66
2022/09/25 04:22:27;;;;;;;;;8.00;5.67;;;;;16.67;59.80;101002.84;5047570;28;45508;-65
2022/09/25 04:24:53;;;;;;;;;8.00;6.33;;;;;16.65;59.91;101021.72;5047204;28;46840;-68
2022/09/25 04:27:21;;;;;;;;;5.67;5.67;;;;;16.66;59.55;101006.41;5045400;28;45566;-67
2022/09/25 04:29:47;;;;;;;;;10.00;8.00;;;;;16.67;59.55;101016.31;5047230;28;45504;-67
2022/09/25 04:34:59;;;;;;;;;4.00;4.00;;;;;16.56;59.18;100989.28;5045383;28;45955;-66
2022/09/25 04:37:27;;;;;;;;;7.67;7.33;;;;;16.28;59.21;100942.38;5038041;28;45762;-66
2022/09/25 04:39:54;;;;;;;;;10.00;9.33;;;;;16.58;59.41;101000.97;5039890;28;45555;-71
2022/09/25 04:42:23;;;;;;;;;8.33;8.00;;;;;16.67;59.36;101006.44;5040674;28;45951;-69
2022/09/25 04:44:49;;;;;;;;;7.33;7.33;;;;;16.66;59.71;101015.41;5046839;28;45695;-66
2022/09/25 04:47:14;;;;;;;;;12.67;9.00;;;;;16.23;59.40;100945.03;5046936;28;46165;-66
2022/09/25 04:49:39;;;;;;;;;12.33;9.33;;;;;16.65;59.18;101020.81;5044874;28;64379;-64
2022/09/25 04:52:05;;;;;;;;;9.00;9.00;;;;;16.57;59.12;101015.38;5046210;28;49556;-69
2022/09/25 04:54:30;;;;;;;;;15.33;9.67;;;;;16.54;59.32;101008.16;5047321;28;45562;-67
2022/09/25 04:56:56;;;;;;;;;10.00;9.00;;;;;16.61;59.70;101032.47;5045573;28;45443;-65
2022/09/25 04:59:21;;;;;;;;;11.67;10.67;;;;;16.37;59.59;100989.16;5040237;28;45688;-63
2022/09/25 05:01:47;;;;;;;;;13.33;11.00;;;;;16.34;59.60;100993.66;5038666;28;45806;-67
2022/09/25 05:04:13;;;;;;;;;13.33;11.67;;;;;16.59;59.50;101043.25;5038464;28;45711;-67
2022/09/25 05:06:38;;;;;;;;;14.00;9.50;;;;;16.58;59.45;101039.66;5044407;28;45763;-69
2022/09/25 05:09:03;;;;;;;;;15.00;12.67;;;;;16.59;59.32;101049.53;5045433;28;45522;-67
2022/09/25 05:11:29;;;;;;;;;11.00;10.00;;;;;16.45;59.01;101026.06;5044059;28;45532;-69
2022/09/25 05:13:54;;;;;;;;;15.00;6.67;;;;;16.58;58.90;101045.06;5045044;28;45612;-68
2022/09/25 05:16:20;;;;;;;;;12.33;9.33;;;;;16.59;59.16;101044.13;5048204;28;57997;-65
2022/09/25 05:18:45;;;;;;;;;13.33;11.00;;;;;16.50;59.33;101032.38;5048703;28;45739;-65
2022/09/25 05:21:12;;;;;;;;;10.00;9.50;;;;;16.53;58.86;101043.19;5043229;28;54668;-66
2022/09/25 05:23:37;;;;;;;;;15.00;9.33;;;;;16.48;58.67;101043.19;5039351;28;45504;-66
2022/09/25 05:26:02;;;;;;;;;10.67;10.67;;;;;16.38;58.91;101033.22;5037724;28;45496;-67
2022/09/25 05:28:29;;;;;;;;;10.00;9.00;;;;;16.38;58.78;101041.31;5041906;28;54324;-69
2022/09/25 05:30:57;;;;;;;;;7.67;7.00;;;;;16.40;59.29;101043.13;5045165;28;45556;-65
2022/09/25 05:33:22;;;;;;;;;5.00;5.00;;;;;16.38;58.94;101049.38;5046567;28;45784;-67
2022/09/25 05:35:47;;;;;;;;;11.33;6.67;;;;;16.19;59.06;101022.28;5046014;28;46204;-67
2022/09/25 05:38:13;;;;;;;;;10.33;6.67;;;;;16.30;59.48;101051.13;5044982;28;61754;-68
2022/09/25 05:40:39;;;;;;;;;12.67;11.00;;;;;16.24;59.59;101051.09;5045880;28;45457;-68
2022/09/25 05:43:04;;;;;;;;;13.67;9.00;;;;;16.26;59.48;101052.00;5043878;28;45442;-66
2022/09/25 05:45:30;;;;;;;;;13.00;7.33;;;;;16.25;58.97;101050.19;5037603;28;45816;-63
2022/09/25 05:48:03;;;;;;;;;11.00;9.00;;;;;16.21;59.19;101049.28;5038030;28;45774;-70
2022/09/25 05:50:31;;;;;;;;;8.33;8.33;;;;;16.10;59.24;101050.97;5039696;28;45765;-66
2022/09/25 05:52:58;;;;;;;;;9.33;7.33;;;;;16.13;59.12;101053.69;5046376;28;45373;-66
2022/09/25 05:55:24;;;;;;;;;7.00;5.67;;;;;16.16;59.50;101056.41;5044599;28;46420;-68
2022/09/25 05:57:50;;;;;;;;;11.33;9.00;;;;;16.09;59.75;101059.97;5046188;28;45999;-67
2022/09/25 06:00:16;;;;;;;;;8.75;8.00;;;;;16.17;59.57;101067.22;5046030;28;46051;-65
2022/09/25 06:02:42;;;;;;;;;7.00;6.33;;;;;16.16;59.51;101059.13;5046413;28;45475;-68
2022/09/25 06:05:08;;;;;;;;;10.00;9.00;;;;;16.00;59.36;101033.81;5043913;28;46344;-68
2022/09/25 06:07:35;;;;;;;;;16.00;9.00;;;;;16.22;59.13;101075.34;5035706;28;46139;-65
2022/09/25 06:10:00;;;;;;;;;12.33;12.00;;;;;16.03;58.98;101033.84;5040324;28;45810;-69
2022/09/25 06:12:28;;;;;;;;;12.00;6.33;;;;;16.26;59.04;101078.97;5042664;28;45832;-66
2022/09/25 06:14:53;;;;;;;;;9.33;8.33;;;;;16.25;58.68;101078.06;5047274;28;45560;-66
2022/09/25 06:17:19;;;;;;;;;5.67;2.00;;;;;16.22;58.53;101086.13;5048592;28;58090;-69
2022/09/25 06:19:44;;;;;;;;;11.33;8.33;;;;;16.05;58.26;101063.50;5048704;28;45600;-67
2022/09/25 06:22:10;;;;;;;;;6.00;6.00;;;;;16.16;58.05;101091.47;5048566;28;45855;-70
2022/09/25 06:24:35;;;;;;;;;6.33;4.67;;;;;16.12;58.01;101089.63;5047206;28;58030;-67
2022/09/25 06:27:00;;;;;;;;;9.33;8.00;;;;;16.09;58.30;101093.19;5048971;28;58019;-67
2022/09/25 06:29:25;;;;;;;;;12.33;6.67;;;;;16.04;58.29;101092.25;5039130;28;46151;-64
2022/09/25 06:31:51;;;;;;;;;5.00;4.67;;;;;15.89;58.10;101076.84;5041750;28;45752;-70
2022/09/25 06:34:16;;;;;;;;;5.00;5.00;;;;;15.93;57.95;101083.16;5051329;28;45599;-69
2022/09/25 06:36:41;;;;;;;;;7.33;5.00;;;;;15.95;58.15;101090.34;5064530;28;46303;-66
2022/09/25 06:39:07;;;;;;;;;8.67;6.33;;;;;15.94;58.35;101090.38;5068123;28;45068;-66
2022/09/25 06:41:33;;;;;;;;;10.33;6.33;;;;;15.92;57.80;101098.44;5067291;28;45245;-65
2022/09/25 06:43:58;;;;;;;;;7.67;5.33;;;;;15.87;57.91;101088.47;5063130;28;45245;-67
2022/09/25 06:46:24;;;;;;;;;7.67;6.67;;;;;15.83;58.17;101084.88;5066146;28;45575;-67
2022/09/25 06:48:54;;;;;;;;;6.67;4.33;;;;;15.81;58.15;101094.72;5064852;28;45212;-66
2022/09/25 06:51:20;;;;;;;;;13.33;6.33;;;;;15.79;58.46;101092.00;5065066;28;45325;-67
2022/09/25 06:53:46;;;;;;;;;7.67;5.67;;;;;15.75;58.56;101092.81;5049930;28;46002;-64
2022/09/25 06:56:11;;;;;;;;;7.33;6.67;;;;;15.76;58.52;101094.69;5040385;28;45527;-65
2022/09/25 06:58:37;;;;;;;;;7.00;6.33;;;;;15.69;58.77;101081.06;5044402;28;55461;-67
2022/09/25 07:01:03;;;;;;;;;8.00;5.33;;;;;15.72;58.33;101091.88;5046498;28;45665;-68
2022/09/25 07:03:44;;;;;;;;;4.67;4.67;;;;;15.48;58.25;101058.44;5047908;28;46001;-65
2022/09/25 07:06:18;;;;;;;;;6.33;4.00;;;;;15.72;57.91;101094.59;5048268;28;45489;-67
2022/09/25 07:08:45;;;;;;;;;4.33;4.33;;;;;15.65;57.97;101090.91;5048879;28;45982;-62
2022/09/25 07:11:16;;;;;;;;;6.67;4.67;;;;;15.60;58.05;101079.19;5047284;28;45407;-64
2022/09/25 07:13:41;;;;;;;;;11.33;5.00;;;;;15.16;58.13;100994.34;5043771;28;45600;-64
2022/09/25 07:16:16;;;;;;;;;3.33;3.33;;;;;15.79;57.63;101105.50;5040194;28;45598;-68
2022/09/25 07:18:42;;;;;;;;;3.00;3.00;;;;;15.69;58.05;101079.31;5038494;28;46803;-64
2022/09/25 07:21:16;;;;;;;;;4.67;3.00;;;;;15.83;57.89;101111.81;5041289;28;45797;-64
2022/09/25 07:23:42;;;;;;;;;6.33;6.33;;;;;15.86;57.79;101102.88;5062383;28;46349;-69
2022/09/25 07:26:15;;;;;;;;;4.33;4.33;;;;;15.74;57.46;101060.47;5046365;28;45404;-64
2022/09/25 07:28:42;;;;;;;;;3.67;2.67;;;;;15.89;57.28;101095.72;5045979;28;46007;-62
2022/09/25 07:31:14;;;;;;;;;7.00;3.67;;;;;15.90;57.43;101100.19;5046545;28;45567;-63
2022/09/25 07:33:39;;;;;;;;;4.00;4.00;;;;;15.88;57.08;101096.59;5045800;28;46215;-64
2022/09/25 07:36:05;;;;;;;;;2.67;2.67;;;;;15.94;57.24;101103.84;5043033;28;45667;-67
2022/09/25 07:38:31;;;;;;;;;7.00;5.00;;;;;15.93;57.34;101110.13;5039722;28;45543;-70
2022/09/25 07:40:56;;;;;;;;;5.33;2.67;;;;;15.77;57.40;101083.03;5039188;28;45588;-69
2022/09/25 07:43:22;;;;;;;;;7.33;3.33;;;;;15.56;57.25;101028.88;5042141;28;45513;-64
2022/09/25 07:45:52;;;;;;;;;8.00;3.67;;;;;16.09;56.86;101114.75;5046620;28;45555;-64
2022/09/25 07:48:20;;;;;;;;;3.67;3.67;;;;;16.02;57.14;101102.13;5047627;28;46038;-64
2022/09/25 07:50:47;;;;;;;;;4.00;4.00;;;;;16.07;56.63;101110.22;5047214;28;45578;-66
2022/09/25 07:53:13;;;;;;;;;4.67;2.67;;;;;16.03;56.53;101109.31;5045491;28;46266;-66
2022/09/25 07:55:38;;;;;;;;;2.00;2.00;;;;;16.19;56.98;101129.25;5046780;28;52798;-68
2022/09/25 07:58:03;;;;;;;;;3.33;3.33;;;;;16.21;56.37;101128.34;5045977;28;46026;-70
2022/09/25 08:00:28;;;;;;;;;4.00;2.67;;;;;16.13;56.13;101096.81;5037752;28;52645;-66
2022/09/25 08:02:56;;;;;;;;;5.00;5.00;;;;;15.93;56.25;101054.41;5038150;28;45536;-64
2022/09/25 08:05:21;;;;;;;;;5.00;2.67;;;;;16.35;56.20;101120.41;5040167;28;46049;-66
2022/09/25 08:07:47;;;;;;;;;7.00;5.00;;;;;15.98;56.02;101059.84;5044698;28;45483;-63
2022/09/25 08:10:12;;;;;;;;;5.00;3.00;;;;;16.42;56.06;101121.34;5047330;28;45901;-64
2022/09/25 08:12:39;;;;;;;;;4.00;4.00;;;;;16.46;55.92;101116.88;5046424;28;46040;-65
2022/09/25 08:15:06;;;;;;;;;5.33;5.33;;;;;16.33;55.48;101095.22;5047105;28;45521;-66
2022/09/25 08:17:31;;;;;;;;;2.33;2.33;;;;;16.49;55.82;101111.50;5051858;28;45651;-65
2022/09/25 08:19:57;;;;;;;;;3.33;3.00;;;;;16.20;55.28;101056.47;5060096;28;45601;-62
2022/09/25 08:22:22;;;;;;;;;8.00;2.67;;;;;16.37;55.05;101078.16;5057324;27;47354;-68
2022/09/25 08:24:48;;;;;;;;;2.33;2.33;;;;;16.72;55.68;101123.38;5038923;28;45668;-68
2022/09/25 08:27:13;;;;;;;;;3.00;3.00;;;;;16.82;55.04;101120.75;5038937;28;45619;-68
2022/09/25 08:29:38;;;;;;;;;2.00;2.00;;;;;16.85;54.00;101123.50;5044640;28;45963;-69
2022/09/25 08:32:03;;;;;;;;;2.33;2.33;;;;;16.86;54.59;101128.00;5045476;28;54889;-69
2022/09/25 08:34:30;;;;;;;;;0.00;0.00;;;;;16.95;54.06;101122.66;5045857;28;45407;-69
2022/09/25 08:36:56;;;;;;;;;5.67;1.67;;;;;16.88;54.41;101104.63;5045526;28;45543;-67
2022/09/25 08:39:22;;;;;;;;;3.00;3.00;;;;;16.96;53.77;101097.50;5047024;28;45543;-65
2022/09/25 08:41:51;;;;;;;;;2.67;1.67;;;;;17.13;53.64;101111.06;5044573;28;46106;-67
2022/09/25 08:44:44;;;;;;;;;1.00;1.00;;;;;16.86;53.46;101047.03;5040883;28;45740;-70
2022/09/25 08:50:14;;;;;;;;;2.67;2.00;;;;;17.23;52.66;101088.59;5039878;28;45921;-67
2022/09/25 08:52:42;;;;;;;;;2.33;2.33;;;;;17.48;52.62;101124.72;5044585;28;46228;-66
2022/09/25 08:55:18;;;;;;;;;1.33;1.33;;;;;17.46;52.52;101115.72;5045487;28;45800;-67
2022/09/25 08:57:44;;;;;;;;;3.00;2.33;;;;;17.54;52.42;101114.81;5040853;28;45658;-64
2022/09/25 09:00:19;;;;;;;;;4.00;2.33;;;;;17.67;51.48;101111.31;5042640;28;45483;-66
2022/09/25 09:02:52;;;;;;;;;1.33;1.33;;;;;17.53;51.07;101075.22;5043716;28;45550;-66
2022/09/25 09:05:27;;;;;;;;;2.00;1.00;;;;;17.81;50.62;101120.31;5049467;28;45512;-66
2022/09/25 09:07:59;;;;;;;;;1.33;1.00;;;;;17.88;50.71;101118.56;5035197;28;46392;-64
2022/09/25 09:10:47;;;;;;;;;1.00;1.00;;;;;17.88;50.21;101101.47;5037045;28;45712;-64
2022/09/25 09:13:32;;;;;;;;;3.00;2.00;;;;;18.02;49.70;101115.91;5045964;28;45789;-67
2022/09/25 09:16:09;;;;;;;;;6.33;3.33;;;;;18.14;52.63;101129.44;5052730;28;45457;-66
2022/09/25 09:18:39;;;;;;;;;1.67;1.67;;;;;17.91;50.01;101048.28;5052282;28;45499;-63
2022/09/25 09:21:21;;;;;;;;;3.33;2.00;;;;;18.29;50.02;101106.91;5052123;28;45388;-65
2022/09/25 09:24:07;;;;;;;;;2.00;2.00;;;;;18.40;48.26;101118.63;5050652;28;46313;-65
2022/09/25 09:26:33;;;;;;;;;5.00;4.00;;;;;18.48;48.44;101113.22;5050967;28;45477;-66
2022/09/25 09:29:36;;;;;;;;;10.00;10.00;;;;;18.53;47.53;101114.13;5053036;28;45469;-68
2022/09/25 09:32:26;;;;;;;;;6.67;6.67;;;;;18.60;47.29;101113.22;5053986;28;45500;-69
2022/09/25 09:34:59;;;;;;;;;6.00;5.67;;;;;18.70;46.85;101110.50;5052595;28;46488;-67
2022/09/25 09:37:48;;;;;;;;;7.33;7.33;;;;;19.06;47.08;101103.25;5053240;28;45377;-68
2022/09/25 09:40:31;;;;;;;;;10.33;4.00;;;;;19.95;44.68;101113.69;5067811;28;45443;-64
2022/09/25 09:43:35;;;;;;;;;2.00;2.00;;;;;20.64;42.79;101104.16;5047877;28;45464;-65
2022/09/25 09:46:26;;;;;;;;;1.00;1.00;;;;;21.57;40.47;101106.72;5051567;28;46115;-65
2022/09/25 09:49:13;;;;;;;;;3.33;3.33;;;;;22.01;38.31;101109.72;5049879;28;45486;-66
2022/09/25 09:51:42;;;;;;;;;4.00;3.00;;;;;22.02;37.45;101119.69;5051897;28;45453;-67
2022/09/25 09:54:11;;;;;;;;;4.33;3.00;;;;;21.61;38.10;101048.66;5052679;28;45715;-63
2022/09/25 09:56:42;;;;;;;;;3.00;3.00;;;;;21.85;37.72;101118.13;5052468;28;46333;-65
2022/09/25 09:59:41;;;;;;;;;1.00;1.00;;;;;21.53;36.78;101091.34;5052506;28;45261;-66
2022/09/25 10:02:36;;;;;;;;;3.00;3.00;;;;;21.49;37.73;101112.25;5048981;28;45366;-68
2022/09/25 10:05:08;;;;;;;;;2.00;2.00;;;;;21.37;37.58;101117.84;5051574;28;45591;-70
2022/09/25 10:07:37;;;;;;;;;2.33;1.67;;;;;21.04;37.50;101092.84;5051876;28;45504;-63
2022/09/25 10:10:13;;;;;;;;;1.33;1.33;;;;;20.98;37.96;101101.97;5051956;28;45435;-65
2022/09/25 10:12:41;;;;;;;;;0.00;0.00;;;;;20.94;38.25;101097.50;5051861;28;45452;-65
2022/09/25 10:15:16;;;;;;;;;0.00;0.00;;;;;20.91;37.99;101112.94;5052779;28;45264;-63
2022/09/25 10:17:42;;;;;;;;;1.00;1.00;;;;;20.81;38.11;101103.97;5050378;28;46396;-64
2022/09/25 10:20:19;;;;;;;;;2.00;0.00;;;;;20.38;37.93;101026.53;5052192;28;45429;-64
2022/09/25 10:22:46;;;;;;;;;1.00;1.00;;;;;20.84;38.34;101093.09;5056925;28;45323;-64
2022/09/25 10:25:11;;;;;;;;;1.00;1.00;;;;;20.86;38.63;101106.66;5049703;28;45456;-64
2022/09/25 10:27:47;;;;;;;;;1.33;1.33;;;;;20.69;37.29;101076.91;5049253;28;46032;-64
2022/09/25 10:30:13;;;;;;;;;0.00;0.00;;;;;20.78;36.83;101096.75;5051077;28;45435;-65
2022/09/25 10:32:53;;;;;;;;;2.00;1.00;;;;;20.77;36.32;101094.03;5049800;28;45434;-65
2022/09/25 10:35:26;;;;;;;;;1.00;0.00;;;;;20.79;36.37;101095.84;5052573;28;45420;-64
2022/09/25 10:37:54;;;;;;;;;7.00;2.00;;;;;20.84;36.55;101098.50;5055310;28;45614;-63
2022/09/25 10:40:24;;;;;;;;;3.67;2.00;;;;;20.92;36.72;101093.91;5069435;28;44929;-64
2022/09/25 10:43:02;;;;;;;;;3.00;1.33;;;;;20.84;35.32;101062.28;5062608;28;45551;-63
2022/09/25 10:45:30;;;;;;;;;1.67;1.00;;;;;21.02;36.08;101083.84;5049046;28;45553;-63
2022/09/25 10:50:41;;;;;;;;;2.67;2.67;;;;;20.94;36.33;101083.91;5048882;28;45321;-63
2022/09/25 10:53:27;;;;;;;;;1.33;1.33;;;;;20.94;36.04;101085.75;5050074;28;45385;-66
2022/09/25 10:55:59;;;;;;;;;1.00;1.00;;;;;20.77;36.07;101056.03;5053398;28;45364;-65
2022/09/25 10:58:34;;;;;;;;;0.33;0.00;;;;;20.92;35.57;101074.88;5048919;28;46031;-67
2022/09/25 11:01:02;;;;;;;;;4.33;2.00;;;;;20.98;35.88;101091.09;5051566;28;45657;-65
2022/09/25 11:03:33;;;;;;;;;1.00;1.00;;;;;20.96;35.54;101084.78;5054955;28;45436;-69
2022/09/25 11:06:04;;;;;;;;;1.00;1.00;;;;;21.02;36.18;101085.63;5051287;28;45865;-65
2022/09/25 11:08:34;;;;;;;;;1.33;1.33;;;;;21.03;36.36;101085.63;5052844;28;46342;-68
2022/09/25 11:11:01;;;;;;;;;3.00;1.00;;;;;20.80;36.48;101056.91;5052201;28;45562;-74
2022/09/25 11:13:35;;;;;;;;;2.00;2.00;;;;;21.02;35.83;101100.13;5053531;28;45427;-66
2022/09/25 11:16:03;;;;;;;;;0.00;0.00;;;;;20.94;35.53;101089.34;5071132;27;45369;-65
2022/09/25 11:18:44;;;;;;;;;1.00;1.00;;;;;20.84;35.69;101082.22;5053535;28;45847;-70
2022/09/25 11:21:32;;;;;;;;;1.00;1.00;;;;;20.94;35.77;101091.16;5060179;28;45413;-67
2022/09/25 11:24:16;;;;;;;;;2.00;0.67;;;;;20.95;36.27;101098.38;5046828;28;45531;-65
2022/09/25 11:26:50;;;;;;;;;0.00;0.00;;;;;20.61;36.27;101028.13;5050720;28;45681;-67
2022/09/25 11:29:21;;;;;;;;;3.67;3.00;;;;;21.03;36.58;101096.47;5048118;28;45673;-65
2022/09/25 11:31:54;;;;;;;;;2.67;1.67;;;;;20.92;36.55;101074.88;5052063;28;45502;-63
2022/09/25 11:34:53;;;;;;;;;1.00;1.00;;;;;20.98;36.38;101091.09;5052296;28;45573;-65
2022/09/25 11:37:48;;;;;;;;;1.00;1.00;;;;;20.97;36.70;101085.72;5054384;28;45502;-65
2022/09/25 11:43:15;;;;;;;;;4.00;4.00;;;;;20.94;36.70;101083.03;5052694;28;45508;-65
2022/09/25 11:46:02;;;;;;;;;2.00;2.00;;;;;20.82;36.64;101080.41;5052813;28;45422;-65
2022/09/25 11:48:41;;;;;;;;;2.67;1.00;;;;;20.89;36.18;101087.59;5050508;28;45540;-69
2022/09/25 11:51:27;;;;;;;;;2.67;0.00;;;;;20.83;35.96;101088.56;5048493;28;45463;-67
2022/09/25 11:54:11;;;;;;;;;2.00;0.00;;;;;20.81;36.52;101093.09;5052574;28;45386;-71
2022/09/25 11:56:56;;;;;;;;;1.00;1.00;;;;;20.83;36.42;101090.38;5053446;28;45418;-64
2022/09/25 11:59:49;;;;;;;;;1.00;1.00;;;;;20.79;36.38;101087.69;5049095;28;45476;-64